Time;durP1;ratioP1;P1;durP2;ratioP2;P2;SDS_P1;SDS_P2;PMS_P1;PMS_P2;Temp;Humidity;BMP_temperature;BMP_pressure;BME280_temperature;BME280_humidity;BME280_pressure;Samples;Min_cycle;Max_cycle;Signal;HPM_P1;HPM_P2
2022/12/08 00:01:33;;;;;;;8.87;3.83;;;;;;;;;;6207710;23;20076;-63
2022/12/08 00:04:07;;;;;;;7.67;3.67;;;;;;;;;;6207861;23;20090;-63
2022/12/08 00:09:38;;;;;;;10.10;4.57;;;;;;;;;;6206586;23;20020;-63
2022/12/08 00:12:07;;;;;;;10.07;4.00;;;;;;;;;;6207229;23;20051;-63
2022/12/08 00:14:43;;;;;;;10.00;3.50;;;;;;;;;;6207429;23;20410;-63
2022/12/08 00:17:11;;;;;;;14.83;3.97;;;;;;;;;;6204414;23;20410;-55
2022/12/08 00:19:45;;;;;;;8.53;3.43;;;;;;;;;;6207962;23;20370;-49
2022/12/08 00:22:13;;;;;;;;;;;;;;;;;;6208824;23;20020;-48
2022/12/08 00:24:54;;;;;;;7.83;3.57;;;;;;;;;;6208651;23;19931;-45
2022/12/08 00:27:21;;;;;;;6.33;3.63;;;;;;;;;;6208640;23;20017;-45
2022/12/08 00:29:55;;;;;;;9.20;3.73;;;;;;;;;;6209820;23;20029;-47
2022/12/08 00:32:22;;;;;;;9.17;4.07;;;;;;;;;;6209814;23;20017;-47
2022/12/08 00:34:49;;;;;;;7.70;3.87;;;;;;;;;;6208531;23;20024;-57
2022/12/08 00:37:23;;;;;;;7.30;3.63;;;;;;;;;;6209636;23;20489;-50
2022/12/08 00:39:50;;;;;;;8.93;4.37;;;;;;;;;;6208505;23;20099;-62
2022/12/08 00:42:24;;;;;;;10.10;4.00;;;;;;;;;;6184374;23;20075;-62
2022/12/08 00:44:51;;;;;;;8.03;4.30;;;;;;;;;;6209552;23;20100;-62
2022/12/08 00:47:18;;;;;;;9.57;4.60;;;;;;;;;;6209714;23;20104;-61
2022/12/08 00:49:52;;;;;;;9.20;3.77;;;;;;;;;;6209312;23;20051;-61
2022/12/08 00:52:19;;;;;;;8.30;3.93;;;;;;;;;;6209593;23;20100;-61
2022/12/08 00:54:46;;;;;;;9.57;3.53;;;;;;;;;;6209252;23;20031;-51
2022/12/08 00:57:20;;;;;;;15.10;4.03;;;;;;;;;;6207942;23;20020;-62
2022/12/08 00:59:47;;;;;;;;;;;;;;;;;;6210253;23;20687;-61
2022/12/08 01:02:21;;;;;;;5.93;3.53;;;;;;;;;;6208526;23;20019;-61
2022/12/08 01:04:48;;;;;;;9.13;4.03;;;;;;;;;;6182457;23;20103;-62
2022/12/08 01:07:15;;;;;;;9.53;4.03;;;;;;;;;;6209780;23;20107;-62
2022/12/08 01:09:49;;;;;;;8.63;3.70;;;;;;;;;;6208425;23;20017;-61
2022/12/08 01:12:16;;;;;;;8.10;4.03;;;;;;;;;;6209001;23;20024;-62
2022/12/08 01:14:50;;;;;;;10.60;3.97;;;;;;;;;;6208691;23;20485;-48
2022/12/08 01:17:17;;;;;;;6.70;4.03;;;;;;;;;;6205989;23;20023;-52
2022/12/08 01:19:44;;;;;;;;;;;;;;;;;;6208370;23;20031;-51
2022/12/08 01:22:25;;;;;;;8.57;3.73;;;;;;;;;;6209184;23;19915;-52
2022/12/08 01:24:52;;;;;;;8.80;3.70;;;;;;;;;;6207474;23;20851;-52
2022/12/08 01:27:26;;;;;;;9.73;4.17;;;;;;;;;;6208924;23;20438;-51
2022/12/08 01:29:53;;;;;;;8.77;4.07;;;;;;;;;;6209575;23;20024;-53
2022/12/08 01:32:20;;;;;;;;;;;;;;;;;;6209168;23;20109;-63
2022/12/08 01:34:54;;;;;;;6.20;3.67;;;;;;;;;;6207778;23;19926;-62
2022/12/08 01:37:21;;;;;;;10.43;4.10;;;;;;;;;;6209193;23;20127;-62
2022/12/08 01:39:55;;;;;;;8.07;3.60;;;;;;;;;;6208163;23;20119;-61
2022/12/08 01:42:23;;;;;;;9.30;3.53;;;;;;;;;;6209307;23;20052;-61
2022/12/08 01:44:55;;;;;;;9.43;3.70;;;;;;;;;;6209211;23;20470;-62
2022/12/08 01:47:35;;;;;;;8.97;3.80;;;;;;;;;;6209015;23;20107;-61
2022/12/08 01:50:04;;;;;;;7.63;3.70;;;;;;;;;;6207536;23;20024;-63
2022/12/08 01:52:43;;;;;;;6.63;3.60;;;;;;;;;;6209147;23;20024;-48
2022/12/08 01:55:16;;;;;;;6.03;3.43;;;;;;;;;;6209656;23;20017;-51
2022/12/08 01:57:55;;;;;;;8.63;3.20;;;;;;;;;;6208632;23;20025;-54
2022/12/08 02:00:22;;;;;;;8.40;3.63;;;;;;;;;;6209207;23;20425;-49
2022/12/08 02:03:04;;;;;;;7.87;3.50;;;;;;;;;;6209900;23;20020;-50
2022/12/08 02:05:33;;;;;;;8.20;3.13;;;;;;;;;;6209223;23;20028;-48
2022/12/08 02:08:09;;;;;;;9.00;3.57;;;;;;;;;;6209474;23;20095;-52
2022/12/08 02:10:38;;;;;;;8.00;4.10;;;;;;;;;;6207447;23;20028;-62
2022/12/08 02:13:07;;;;;;;5.63;3.17;;;;;;;;;;6208904;23;20035;-63
2022/12/08 02:15:47;;;;;;;6.47;3.20;;;;;;;;;;6208250;23;20492;-63
2022/12/08 02:18:24;;;;;;;5.53;3.40;;;;;;;;;;6209096;23;20030;-64
2022/12/08 02:21:17;;;;;;;8.30;3.23;;;;;;;;;;6209671;23;20024;-63
2022/12/08 02:24:01;;;;;;;7.10;3.90;;;;;;;;;;6177523;23;20025;-63
2022/12/08 02:26:44;;;;;;;6.57;3.00;;;;;;;;;;6179368;23;20363;-63
2022/12/08 02:29:17;;;;;;;4.83;2.77;;;;;;;;;;6178849;23;20138;-63
2022/12/08 02:32:17;;;;;;;6.87;3.10;;;;;;;;;;6179105;23;20021;-51
2022/12/08 02:34:52;;;;;;;8.27;2.60;;;;;;;;;;6179771;23;20132;-53
2022/12/08 02:37:29;;;;;;;8.53;3.27;;;;;;;;;;6178415;23;20203;-47
2022/12/08 02:40:11;;;;;;;5.13;2.37;;;;;;;;;;6178907;23;20112;-48
2022/12/08 02:42:54;;;;;;;5.03;2.43;;;;;;;;;;6178303;23;20028;-48
2022/12/08 02:45:31;;;;;;;4.50;2.33;;;;;;;;;;6177734;23;20048;-53
2022/12/08 02:48:05;;;;;;;5.90;2.80;;;;;;;;;;6178611;23;20021;-61
2022/12/08 02:50:32;;;;;;;6.00;2.53;;;;;;;;;;6178746;23;20028;-62
2022/12/08 02:53:06;;;;;;;5.43;2.97;;;;;;;;;;6178170;23;20410;-48
2022/12/08 02:55:35;;;;;;;4.50;3.00;;;;;;;;;;6179032;23;20013;-50
2022/12/08 02:58:11;;;;;;;7.10;3.40;;;;;;;;;;6177676;23;20247;-51
2022/12/08 03:00:48;;;;;;;3.93;2.73;;;;;;;;;;6177137;23;20108;-51
2022/12/08 03:03:24;;;;;;;5.67;2.60;;;;;;;;;;6178009;23;20017;-50
2022/12/08 03:06:12;;;;;;;6.67;2.70;;;;;;;;;;6153043;23;20497;-51
2022/12/08 03:08:51;;;;;;;6.90;2.83;;;;;;;;;;6177475;23;20068;-63
2022/12/08 03:11:43;;;;;;;7.70;3.00;;;;;;;;;;6178942;23;20679;-61
2022/12/08 03:14:11;;;;;;;11.07;3.90;;;;;;;;;;6178244;23;20021;-62
2022/12/08 03:16:47;;;;;;;6.80;3.00;;;;;;;;;;6178272;23;20433;-61
2022/12/08 03:19:18;;;;;;;6.57;3.47;;;;;;;;;;6177678;23;20529;-61
2022/12/08 03:22:03;;;;;;;8.10;3.87;;;;;;;;;;6185625;23;20481;-62
2022/12/08 03:24:38;;;;;;;7.00;3.27;;;;;;;;;;6207499;23;20108;-61
2022/12/08 03:27:18;;;;;;;6.17;3.30;;;;;;;;;;6207621;23;20359;-62
2022/12/08 03:29:50;;;;;;;7.43;3.27;;;;;;;;;;6207839;23;20016;-61
2022/12/08 03:32:36;;;;;;;3.83;2.60;;;;;;;;;;6208261;23;20117;-61
2022/12/08 03:35:06;;;;;;;5.03;2.47;;;;;;;;;;6206969;23;20100;-61
2022/12/08 03:37:41;;;;;;;6.40;2.65;;;;;;;;;;6208048;23;20434;-63
2022/12/08 03:40:10;;;;;;;8.47;3.40;;;;;;;;;;6207303;23;20056;-61
2022/12/08 03:42:37;;;;;;;10.10;3.10;;;;;;;;;;6209276;23;20183;-61
2022/12/08 03:45:11;;;;;;;6.63;3.23;;;;;;;;;;6208667;23;20357;-63
2022/12/08 03:47:38;;;;;;;5.70;3.20;;;;;;;;;;6208632;23;20021;-64
2022/12/08 03:50:12;;;;;;;5.93;3.10;;;;;;;;;;6208946;23;20021;-62
2022/12/08 03:52:39;;;;;;;8.07;3.37;;;;;;;;;;6207761;23;20103;-62
2022/12/08 03:55:06;;;;;;;;;;;;;;;;;;6209811;23;20355;-63
2022/12/08 03:57:40;;;;;;;7.20;3.47;;;;;;;;;;6209390;23;19991;-62
2022/12/08 04:00:08;;;;;;;5.53;2.67;;;;;;;;;;6210940;23;20035;-63
2022/12/08 04:02:35;;;;;;;6.03;2.80;;;;;;;;;;6210074;23;20020;-62
2022/12/08 04:05:09;;;;;;;7.00;2.70;;;;;;;;;;6211499;23;20459;-51
2022/12/08 04:07:36;;;;;;;5.23;2.87;;;;;;;;;;6208155;23;20028;-50
2022/12/08 04:10:10;;;;;;;7.77;2.77;;;;;;;;;;6209548;23;20025;-52
2022/12/08 04:12:37;;;;;;;4.73;2.57;;;;;;;;;;6210296;23;20100;-50
2022/12/08 04:15:04;;;;;;;;;;;;;;;;;;6210034;23;20025;-50
2022/12/08 04:17:38;;;;;;;4.83;2.50;;;;;;;;;;6207711;23;19982;-49
2022/12/08 04:20:06;;;;;;;5.43;2.77;;;;;;;;;;6208872;23;20459;-56
2022/12/08 04:22:46;;;;;;;4.30;2.80;;;;;;;;;;6167999;23;20025;-51
2022/12/08 04:25:13;;;;;;;3.80;2.37;;;;;;;;;;6179921;23;20099;-62
2022/12/08 04:27:47;;;;;;;3.43;2.30;;;;;;;;;;6178257;23;20036;-56
2022/12/08 04:30:14;;;;;;;5.07;2.70;;;;;;;;;;6178865;23;20575;-54
2022/12/08 04:32:41;;;;;;;;;;;;;;;;;;6179984;23;20017;-56
2022/12/08 04:35:15;;;;;;;6.80;3.07;;;;;;;;;;6177801;23;19926;-54
2022/12/08 04:37:43;;;;;;;5.93;2.70;;;;;;;;;;6179163;23;20063;-55
2022/12/08 04:40:10;;;;;;;5.33;2.50;;;;;;;;;;6179145;23;20103;-56
2022/12/08 04:42:44;;;;;;;5.13;2.57;;;;;;;;;;6178814;23;20043;-48
2022/12/08 04:45:11;;;;;;;4.93;2.90;;;;;;;;;;6178394;23;20103;-63
2022/12/08 04:47:45;;;;;;;9.23;2.67;;;;;;;;;;6178596;23;20029;-56
2022/12/08 04:50:12;;;;;;;5.50;2.60;;;;;;;;;;6178735;23;20029;-53
2022/12/08 04:52:39;;;;;;;;;;;;;;;;;;6179867;23;20028;-56
2022/12/08 04:55:14;;;;;;;4.60;2.70;;;;;;;;;;6179655;23;19916;-56
2022/12/08 04:57:41;;;;;;;4.47;2.60;;;;;;;;;;6178795;23;20521;-56
2022/12/08 05:00:15;;;;;;;4.10;2.57;;;;;;;;;;6178352;23;20104;-53
2022/12/08 05:02:42;;;;;;;5.13;2.60;;;;;;;;;;6177982;23;20358;-58
2022/12/08 05:05:10;;;;;;;3.60;2.40;;;;;;;;;;6180146;23;20520;-65
2022/12/08 05:07:43;;;;;;;8.43;2.60;;;;;;;;;;6178596;23;20044;-65
2022/12/08 05:10:10;;;;;;;5.07;2.50;;;;;;;;;;6180170;23;20032;-65
2022/12/08 05:12:44;;;;;;;4.27;2.53;;;;;;;;;;6178354;23;20062;-65
2022/12/08 05:15:11;;;;;;;9.27;3.13;;;;;;;;;;6179358;23;20125;-64
2022/12/08 05:17:38;;;;;;;;;;;;;;;;;;6179140;23;20537;-65
2022/12/08 05:20:12;;;;;;;4.77;2.70;;;;;;;;;;6178850;23;19916;-50
2022/12/08 05:22:52;;;;;;;5.13;2.63;;;;;;;;;;6195871;23;20035;-55
2022/12/08 05:25:26;;;;;;;5.10;2.80;;;;;;;;;;6206884;23;20096;-59
2022/12/08 05:27:53;;;;;;;7.73;2.80;;;;;;;;;;6206531;23;20031;-54
2022/12/08 05:30:41;;;;;;;6.27;2.63;;;;;;;;;;6206412;23;20024;-56
2022/12/08 05:33:14;;;;;;;8.87;2.63;;;;;;;;;;6204798;23;20025;-58
2022/12/08 05:35:41;;;;;;;;;;;;;;;;;;6206339;23;20515;-54
2022/12/08 05:38:10;;;;;;;6.07;2.67;;;;;;;;;;6204669;23;19986;-58
2022/12/08 05:40:44;;;;;;;5.77;2.90;;;;;;;;;;6203905;23;20040;-56
2022/12/08 05:43:11;;;;;;;;;;;;;;;;;;6206854;23;20095;-63
2022/12/08 05:45:45;;;;;;;9.20;2.97;;;;;;;;;;6201458;23;19938;-63
2022/12/08 05:48:12;;;;;;;7.33;2.37;;;;;;;;;;6208645;23;20025;-63
2022/12/08 05:50:40;;;;;;;4.53;2.60;;;;;;;;;;6208489;23;20035;-62
2022/12/08 05:53:13;;;;;;;5.23;2.50;;;;;;;;;;6208047;23;20123;-62
2022/12/08 05:55:40;;;;;;;5.00;2.30;;;;;;;;;;6208444;23;20100;-62
2022/12/08 05:58:16;;;;;;;7.57;2.73;;;;;;;;;;6208537;23;20025;-58
2022/12/08 06:00:44;;;;;;;5.47;2.60;;;;;;;;;;6208381;23;20099;-55
2022/12/08 06:03:11;;;;;;;5.63;2.40;;;;;;;;;;6208247;23;20039;-64
2022/12/08 06:05:46;;;;;;;5.50;2.83;;;;;;;;;;6161489;23;20028;-64
2022/12/08 06:08:13;;;;;;;4.30;2.53;;;;;;;;;;6208831;23;20025;-63
2022/12/08 06:10:47;;;;;;;7.07;2.77;;;;;;;;;;6207661;23;20071;-65
2022/12/08 06:13:14;;;;;;;4.60;2.67;;;;;;;;;;6208655;23;20091;-63
2022/12/08 06:15:41;;;;;;;;;;;;;;;;;;6209042;23;20531;-64
2022/12/08 06:18:15;;;;;;;5.67;2.40;;;;;;;;;;6207958;23;20249;-52
2022/12/08 06:20:42;;;;;;;5.07;2.80;;;;;;;;;;6208154;23;20063;-64
2022/12/08 06:23:23;;;;;;;6.53;2.80;;;;;;;;;;6207756;23;20035;-63
2022/12/08 06:25:50;;;;;;;4.83;2.63;;;;;;;;;;6207547;23;20458;-63
2022/12/08 06:28:24;;;;;;;6.20;2.90;;;;;;;;;;6183089;23;20439;-63
2022/12/08 06:30:58;;;;;;;5.07;3.27;;;;;;;;;;6209565;23;20074;-63
2022/12/08 06:33:32;;;;;;;7.17;3.30;;;;;;;;;;6205336;23;20480;-64
2022/12/08 06:35:59;;;;;;;;;;;;;;;;;;6209522;23;20066;-58
2022/12/08 06:38:26;;;;;;;4.33;2.60;;;;;;;;;;6182729;23;19943;-64
2022/12/08 06:41:04;;;;;;;8.93;3.10;;;;;;;;;;6207283;23;20047;-62
2022/12/08 06:43:32;;;;;;;7.83;3.13;;;;;;;;;;6208390;23;20028;-63
2022/12/08 06:46:07;;;;;;;8.83;2.77;;;;;;;;;;6209378;23;20228;-62
2022/12/08 06:48:35;;;;;;;6.93;3.17;;;;;;;;;;6206220;23;20021;-63
2022/12/08 06:51:13;;;;;;;8.00;3.60;;;;;;;;;;6209342;23;20107;-63
2022/12/08 06:53:41;;;;;;;10.93;3.40;;;;;;;;;;6208010;23;20024;-63
2022/12/08 06:56:08;;;;;;;9.37;3.70;;;;;;;;;;6208274;23;20020;-64
2022/12/08 06:58:42;;;;;;;10.23;3.40;;;;;;;;;;6206458;23;20505;-56
2022/12/08 07:01:18;;;;;;;6.30;3.20;;;;;;;;;;6208467;23;20031;-62
2022/12/08 07:03:51;;;;;;;7.23;3.27;;;;;;;;;;6207332;23;20031;-62
2022/12/08 07:06:21;;;;;;;13.63;3.70;;;;;;;;;;6207746;23;20411;-62
2022/12/08 07:08:48;;;;;;;10.80;3.67;;;;;;;;;;6207539;23;20107;-63
2022/12/08 07:11:23;;;;;;;10.03;3.70;;;;;;;;;;6208113;23;20103;-62
2022/12/08 07:13:50;;;;;;;14.47;3.50;;;;;;;;;;6208982;23;20170;-52
2022/12/08 07:16:24;;;;;;;7.83;3.47;;;;;;;;;;6208674;23;20031;-64
2022/12/08 07:18:51;;;;;;;;;;;;;;;;;;6208403;23;20549;-54
2022/12/08 07:21:18;;;;;;;8.90;4.27;;;;;;;;;;6210033;23;19916;-50
2022/12/08 07:23:59;;;;;;;7.63;3.70;;;;;;;;;;6206544;23;20020;-50
2022/12/08 07:26:26;;;;;;;7.23;3.53;;;;;;;;;;6208155;23;20086;-49
2022/12/08 07:29:00;;;;;;;12.97;3.77;;;;;;;;;;6208564;23;20763;-48
2022/12/08 07:31:28;;;;;;;11.43;3.50;;;;;;;;;;6209188;23;20031;-54
2022/12/08 07:34:01;;;;;;;11.53;3.60;;;;;;;;;;6207114;23;20057;-63
2022/12/08 07:36:28;;;;;;;7.40;3.55;;;;;;;;;;6209364;23;20104;-58
2022/12/08 07:38:55;;;;;;;;;;;;;;;;;;6207288;23;20020;-59
2022/12/08 07:41:29;;;;;;;13.00;3.43;;;;;;;;;;6208513;23;19926;-57
2022/12/08 07:43:56;;;;;;;;;;;;;;;;;;6208790;23;20485;-61
2022/12/08 07:46:30;;;;;;;8.33;3.17;;;;;;;;;;6209161;23;19920;-60
2022/12/08 07:48:58;;;;;;;;;;;;;;;;;;6208910;23;20017;-61
2022/12/08 07:51:25;;;;;;;7.37;3.27;;;;;;;;;;6209406;23;20261;-60
2022/12/08 07:53:59;;;;;;;7.00;3.27;;;;;;;;;;6208168;23;20494;-65
2022/12/08 07:56:26;;;;;;;;;;;;;;;;;;6207961;23;20031;-52
2022/12/08 07:59:01;;;;;;;6.17;3.40;;;;;;;;;;6208292;23;19916;-55
2022/12/08 08:01:29;;;;;;;11.27;2.97;;;;;;;;;;6208193;23;20376;-54
2022/12/08 08:04:04;;;;;;;6.63;3.37;;;;;;;;;;6205998;23;20092;-53
2022/12/08 08:06:32;;;;;;;5.67;3.23;;;;;;;;;;6208161;23;20083;-53
2022/12/08 08:09:05;;;;;;;6.97;2.90;;;;;;;;;;6207901;23;20370;-52
2022/12/08 08:11:32;;;;;;;;;;;;;;;;;;6208004;23;20044;-52
2022/12/08 08:13:59;;;;;;;7.17;2.90;;;;;;;;;;6207243;23;19950;-64
2022/12/08 08:16:33;;;;;;;18.93;3.20;;;;;;;;;;6207760;23;20031;-64
2022/12/08 08:19:04;;;;;;;9.50;3.47;;;;;;;;;;6206280;23;20024;-65
2022/12/08 08:21:38;;;;;;;5.03;2.90;;;;;;;;;;6209181;23;20028;-64
2022/12/08 08:24:20;;;;;;;8.57;2.93;;;;;;;;;;6208365;23;20358;-65
2022/12/08 08:26:54;;;;;;;8.60;2.90;;;;;;;;;;6208434;23;20020;-64
2022/12/08 08:29:28;;;;;;;8.30;2.90;;;;;;;;;;6209678;23;20027;-65
2022/12/08 08:31:55;;;;;;;12.30;4.32;;;;;;;;;;6208463;23;20016;-62
2022/12/08 08:34:29;;;;;;;8.57;3.43;;;;;;;;;;6207707;23;20095;-58
2022/12/08 08:36:56;;;;;;;6.32;3.30;;;;;;;;;;6208295;23;20020;-59
2022/12/08 08:39:23;;;;;;;6.88;3.15;;;;;;;;;;6207985;23;20761;-58
2022/12/08 08:41:57;;;;;;;6.35;3.00;;;;;;;;;;6208667;23;20027;-58
2022/12/08 08:44:24;;;;;;;10.23;3.25;;;;;;;;;;6210752;23;20127;-58
2022/12/08 08:46:58;;;;;;;5.75;2.88;;;;;;;;;;6209838;23;20095;-61
2022/12/08 08:49:25;;;;;;;8.63;3.38;;;;;;;;;;6209436;23;20021;-51
2022/12/08 08:51:53;;;;;;;4.15;2.90;;;;;;;;;;6211192;23;20470;-43
2022/12/08 08:54:28;;;;;;;5.85;2.95;;;;;;;;;;6209079;23;20545;-45
2022/12/08 08:56:56;;;;;;;11.45;3.50;;;;;;;;;;6210678;23;20017;-44
2022/12/08 08:59:30;;;;;;;10.23;3.08;;;;;;;;;;6209294;23;20078;-45
2022/12/08 09:01:57;;;;;;;6.47;2.90;;;;;;;;;;6207155;23;20024;-44
2022/12/08 09:04:31;;;;;;;8.88;2.85;;;;;;;;;;6183446;23;20024;-45
2022/12/08 09:06:59;;;;;;;;;;;;;;;;;;6210508;23;20538;-45
2022/12/08 09:09:26;;;;;;;8.07;3.58;;;;;;;;;;6209647;23;19924;-57
2022/12/08 09:12:00;;;;;;;12.65;3.17;;;;;;;;;;6209060;23;20020;-62
2022/12/08 09:14:28;;;;;;;9.60;3.58;;;;;;;;;;6208903;23;20104;-49
2022/12/08 09:16:55;;;;;;;10.18;2.97;;;;;;;;;;6181850;23;20017;-54
2022/12/08 09:19:29;;;;;;;8.57;3.08;;;;;;;;;;6209619;23;20031;-50
2022/12/08 09:21:56;;;;;;;10.32;3.25;;;;;;;;;;6210272;23;20055;-51
2022/12/08 09:24:37;;;;;;;8.85;2.40;;;;;;;;;;6209909;23;20020;-51
2022/12/08 09:27:04;;;;;;;8.05;2.83;;;;;;;;;;6209216;23;20024;-51
2022/12/08 09:29:38;;;;;;;7.80;3.42;;;;;;;;;;6210481;23;20104;-56
2022/12/08 09:32:12;;;;;;;6.78;3.20;;;;;;;;;;6209165;23;20063;-61
2022/12/08 09:34:39;;;;;;;9.82;3.65;;;;;;;;;;6208144;23;20545;-61
2022/12/08 09:37:06;;;;;;;8.48;3.17;;;;;;;;;;6208844;23;20048;-61
2022/12/08 09:39:40;;;;;;;17.65;3.47;;;;;;;;;;6209448;23;20028;-61
2022/12/08 09:42:07;;;;;;;10.57;2.95;;;;;;;;;;6208303;23;20051;-61
2022/12/08 09:44:47;;;;;;;8.18;2.65;;;;;;;;;;6209522;23;20051;-61
2022/12/08 09:47:28;;;;;;;9.52;3.33;;;;;;;;;;6208015;23;20100;-54
2022/12/08 09:50:19;;;;;;;6.80;2.75;;;;;;;;;;6208413;23;20048;-63
2022/12/08 09:52:53;;;;;;;6.45;2.80;;;;;;;;;;6208737;23;20103;-55
2022/12/08 09:55:24;;;;;;;7.45;2.45;;;;;;;;;;6207549;23;20025;-57
2022/12/08 09:58:00;;;;;;;8.63;2.92;;;;;;;;;;6208164;23;20020;-54
2022/12/08 10:00:34;;;;;;;8.05;3.22;;;;;;;;;;6208777;23;20023;-57
2022/12/08 10:03:10;;;;;;;10.18;3.00;;;;;;;;;;6207544;23;20055;-56
2022/12/08 10:05:46;;;;;;;7.68;3.05;;;;;;;;;;6209424;23;20024;-58
2022/12/08 10:08:25;;;;;;;10.35;2.88;;;;;;;;;;6208637;23;20169;-63
2022/12/08 10:11:01;;;;;;;9.98;3.20;;;;;;;;;;6208051;23;20549;-45
2022/12/08 10:13:38;;;;;;;10.90;2.72;;;;;;;;;;6208649;23;20023;-48
2022/12/08 10:16:08;;;;;;;8.38;3.10;;;;;;;;;;6209067;23;20099;-45
2022/12/08 10:18:57;;;;;;;6.05;2.55;;;;;;;;;;6208130;23;20398;-49
2022/12/08 10:21:31;;;;;;;8.55;2.42;;;;;;;;;;6208697;23;20031;-46
2022/12/08 10:24:10;;;;;;;5.00;2.30;;;;;;;;;;6207715;23;20096;-44
2022/12/08 10:27:06;;;;;;;5.78;2.38;;;;;;;;;;6207596;23;20578;-46
2022/12/08 10:29:40;;;;;;;6.75;1.85;;;;;;;;;;6208470;23;20035;-48
2022/12/08 10:32:21;;;;;;;9.20;2.78;;;;;;;;;;6207705;23;20021;-53
2022/12/08 10:35:24;;;;;;;7.07;2.28;;;;;;;;;;6206913;23;20028;-53
2022/12/08 10:37:59;;;;;;;4.63;2.20;;;;;;;;;;6191026;23;20099;-52
2022/12/08 10:40:36;;;;;;;7.65;2.70;;;;;;;;;;6207559;23;20465;-53
2022/12/08 10:43:17;;;;;;;8.85;2.17;;;;;;;;;;6208566;23;20031;-51
2022/12/08 10:45:50;;;;;;;3.80;2.55;;;;;;;;;;6206811;23;20052;-50
2022/12/08 10:48:19;;;;;;;4.63;2.00;;;;;;;;;;6208199;23;20021;-57
2022/12/08 10:50:53;;;;;;;4.32;2.17;;;;;;;;;;6208387;23;20025;-53
2022/12/08 10:53:28;;;;;;;7.05;2.28;;;;;;;;;;6207911;23;20017;-55
2022/12/08 10:56:01;;;;;;;6.90;2.20;;;;;;;;;;6208706;23;20095;-56
2022/12/08 10:58:28;;;;;;;;;;;;;;;;;;6209627;23;20028;-54
2022/12/08 11:01:13;;;;;;;7.28;2.28;;;;;;;;;;6208522;23;20026;-54
2022/12/08 11:03:56;;;;;;;7.40;2.17;;;;;;;;;;6208973;23;20457;-47
2022/12/08 11:06:34;;;;;;;3.78;2.08;;;;;;;;;;6207920;23;20039;-62
2022/12/08 11:09:17;;;;;;;6.18;2.30;;;;;;;;;;6206247;23;20021;-61
2022/12/08 11:11:52;;;;;;;10.60;2.60;;;;;;;;;;6208185;23;20021;-62
2022/12/08 11:14:25;;;;;;;5.00;2.15;;;;;;;;;;6207251;23;20029;-61
2022/12/08 11:17:17;;;;;;;11.43;2.85;;;;;;;;;;6205601;23;20027;-62
2022/12/08 11:19:46;;;;;;;5.90;2.70;;;;;;;;;;6206221;23;20071;-62
2022/12/08 11:22:54;;;;;;;6.63;2.83;;;;;;;;;;6207500;23;20099;-62
2022/12/08 11:25:25;;;;;;;7.97;2.50;;;;;;;;;;6190709;23;20020;-55
2022/12/08 11:28:00;;;;;;;6.72;2.22;;;;;;;;;;6208258;23;20047;-65
2022/12/08 11:30:30;;;;;;;6.28;2.28;;;;;;;;;;6207415;23;20079;-64
2022/12/08 11:33:00;;;;;;;8.18;2.08;;;;;;;;;;6206450;23;20095;-64
2022/12/08 11:35:39;;;;;;;10.20;2.50;;;;;;;;;;6207472;23;20028;-63
2022/12/08 11:38:12;;;;;;;10.07;2.55;;;;;;;;;;6208728;23;20017;-64
2022/12/08 11:40:50;;;;;;;6.50;1.95;;;;;;;;;;6207985;23;20020;-46
2022/12/08 11:43:20;;;;;;;6.55;2.08;;;;;;;;;;6207947;23;20024;-54
2022/12/08 11:45:58;;;;;;;8.70;2.40;;;;;;;;;;6208016;23;20516;-50
2022/12/08 11:48:35;;;;;;;7.43;2.35;;;;;;;;;;6208120;23;20016;-51
2022/12/08 11:51:28;;;;;;;9.00;2.20;;;;;;;;;;6206968;23;20522;-50
2022/12/08 11:53:55;;;;;;;6.60;2.45;;;;;;;;;;6206883;23;20095;-54
2022/12/08 11:56:34;;;;;;;7.18;2.50;;;;;;;;;;6208719;23;20029;-48
2022/12/08 11:59:10;;;;;;;7.88;2.72;;;;;;;;;;6207782;23;20021;-49
2022/12/08 12:01:44;;;;;;;8.10;2.20;;;;;;;;;;6209788;23;20099;-53
2022/12/08 12:04:21;;;;;;;9.38;2.90;;;;;;;;;;6208592;23;20067;-45
2022/12/08 12:07:00;;;;;;;10.00;2.65;;;;;;;;;;6207205;23;20024;-47
2022/12/08 12:09:35;;;;;;;8.85;2.60;;;;;;;;;;6208136;23;20530;-47
2022/12/08 12:12:12;;;;;;;6.97;2.22;;;;;;;;;;6207474;23;20028;-45
2022/12/08 12:14:40;;;;;;;7.47;2.45;;;;;;;;;;6207106;23;20390;-46
2022/12/08 12:17:26;;;;;;;8.50;2.50;;;;;;;;;;6207933;23;20339;-46
2022/12/08 12:20:02;;;;;;;11.55;2.60;;;;;;;;;;6208428;23;20032;-53
2022/12/08 12:22:32;;;;;;;7.80;2.42;;;;;;;;;;6209582;23;20028;-45
2022/12/08 12:25:17;;;;;;;6.70;2.25;;;;;;;;;;6209985;23;20039;-50
2022/12/08 12:27:45;;;;;;;6.05;2.60;;;;;;;;;;6209485;23;20072;-50
2022/12/08 12:30:25;;;;;;;7.38;2.25;;;;;;;;;;6209158;23;20023;-47
2022/12/08 12:32:59;;;;;;;8.10;2.85;;;;;;;;;;6209443;23;20111;-53
2022/12/08 12:35:40;;;;;;;5.82;2.28;;;;;;;;;;6209845;23;20024;-50
2022/12/08 12:41:11;;;;;;;12.85;2.42;;;;;;;;;;6210214;23;20060;-53
2022/12/08 12:43:38;;;;;;;6.20;2.65;;;;;;;;;;6208469;23;20025;-50
2022/12/08 12:46:24;;;;;;;6.90;2.85;;;;;;;;;;6210657;23;20163;-51
2022/12/08 12:48:52;;;;;;;10.57;2.60;;;;;;;;;;6208430;23;20647;-55
2022/12/08 12:51:37;;;;;;;9.13;2.60;;;;;;;;;;6209271;23;20103;-52
2022/12/08 12:54:21;;;;;;;10.00;2.63;;;;;;;;;;6209814;23;20055;-48
2022/12/08 12:57:04;;;;;;;11.00;3.72;;;;;;;;;;6210300;23;20023;-62
2022/12/08 12:59:46;;;;;;;10.48;2.95;;;;;;;;;;6208190;23;20031;-54
2022/12/08 13:02:40;;;;;;;8.57;3.05;;;;;;;;;;6209765;23;20016;-52
2022/12/08 13:05:17;;;;;;;9.02;2.67;;;;;;;;;;6209620;23;20028;-53
2022/12/08 13:07:54;;;;;;;11.38;3.25;;;;;;;;;;6207981;23;20017;-54
2022/12/08 13:10:32;;;;;;;8.00;2.40;;;;;;;;;;6209486;23;20056;-52
2022/12/08 13:13:09;;;;;;;11.02;2.90;;;;;;;;;;6210099;23;20021;-57
2022/12/08 13:15:51;;;;;;;15.82;3.42;;;;;;;;;;6208609;23;20493;-55
2022/12/08 13:18:35;;;;;;;8.02;2.80;;;;;;;;;;6209351;23;20028;-62
2022/12/08 13:21:09;;;;;;;12.18;3.03;;;;;;;;;;6209622;23;20075;-61
2022/12/08 13:23:43;;;;;;;12.50;2.50;;;;;;;;;;6208630;23;20056;-61
2022/12/08 13:26:17;;;;;;;8.05;3.10;;;;;;;;;;6209886;23;20488;-61
2022/12/08 13:28:44;;;;;;;;;;;;;;;;;;6209519;23;20123;-62
2022/12/08 13:31:35;;;;;;;10.50;2.80;;;;;;;;;;6209571;23;19947;-61
2022/12/08 13:34:24;;;;;;;15.90;3.00;;;;;;;;;;6208226;23;20107;-62
2022/12/08 13:37:10;;;;;;;7.03;2.42;;;;;;;;;;6208124;23;20021;-64
2022/12/08 13:39:40;;;;;;;10.25;2.88;;;;;;;;;;6208938;23;20103;-63
2022/12/08 13:42:19;;;;;;;7.65;2.88;;;;;;;;;;6208721;23;20023;-62
2022/12/08 13:44:49;;;;;;;13.05;3.33;;;;;;;;;;6208491;23;20108;-63
2022/12/08 13:47:53;;;;;;;8.85;2.92;;;;;;;;;;6209143;23;20020;-63
2022/12/08 13:50:46;;;;;;;10.73;2.80;;;;;;;;;;6208583;23;20032;-62
2022/12/08 13:53:40;;;;;;;10.55;2.70;;;;;;;;;;6209578;23;20749;-63
2022/12/08 13:56:28;;;;;;;4.65;2.00;;;;;;;;;;6210008;23;20021;-63
2022/12/08 13:59:22;;;;;;;9.48;2.90;;;;;;;;;;6208313;23;20024;-47
2022/12/08 14:01:50;;;;;;;13.15;2.70;;;;;;;;;;6209963;23;20079;-49
2022/12/08 14:04:26;;;;;;;12.52;3.15;;;;;;;;;;6210083;23;20062;-50
2022/12/08 14:07:13;;;;;;;9.13;2.60;;;;;;;;;;6209092;23;20020;-46
2022/12/08 14:09:47;;;;;;;8.20;2.88;;;;;;;;;;6209435;23;20024;-50
2022/12/08 14:12:19;;;;;;;16.00;3.00;;;;;;;;;;6210002;23;20028;-47
2022/12/08 14:14:48;;;;;;;9.18;2.55;;;;;;;;;;6208867;23;20026;-62
2022/12/08 14:17:31;;;;;;;10.57;3.00;;;;;;;;;;6209536;23;20099;-64
2022/12/08 14:20:11;;;;;;;8.57;3.40;;;;;;;;;;6207727;23;20095;-64
2022/12/08 14:22:39;;;;;;;21.65;2.90;;;;;;;;;;6208970;23;20020;-64
2022/12/08 14:25:20;;;;;;;17.27;4.25;;;;;;;;;;6209254;23;20370;-64
2022/12/08 14:27:48;;;;;;;11.38;3.30;;;;;;;;;;6209654;23;20103;-65
2022/12/08 14:30:27;;;;;;;14.90;4.95;;;;;;;;;;6208406;23;20099;-64
2022/12/08 14:32:57;;;;;;;12.55;3.10;;;;;;;;;;6208881;23;20462;-61
2022/12/08 14:35:33;;;;;;;10.05;3.13;;;;;;;;;;6209412;23;20062;-52
2022/12/08 14:38:01;;;;;;;20.70;3.13;;;;;;;;;;6208943;23;20059;-50
2022/12/08 14:40:32;;;;;;;15.85;3.28;;;;;;;;;;6208959;23;20028;-50
2022/12/08 14:43:11;;;;;;;9.68;2.47;;;;;;;;;;6208127;23;20131;-48
2022/12/08 14:45:41;;;;;;;12.85;2.97;;;;;;;;;;6207935;23;20763;-47
2022/12/08 14:48:24;;;;;;;19.73;3.47;;;;;;;;;;6208446;23;20027;-47
2022/12/08 14:51:03;;;;;;;17.23;3.67;;;;;;;;;;6208784;23;20051;-48
2022/12/08 14:53:52;;;;;;;7.07;2.83;;;;;;;;;;6207930;23;20354;-51
2022/12/08 14:56:35;;;;;;;12.55;3.30;;;;;;;;;;6208393;23;20024;-62
2022/12/08 14:59:11;;;;;;;7.15;3.05;;;;;;;;;;6207681;23;20509;-62
2022/12/08 15:01:44;;;;;;;18.75;4.10;;;;;;;;;;6208413;23;20021;-62
2022/12/08 15:04:12;;;;;;;15.23;3.75;;;;;;;;;;6180964;23;20071;-62
2022/12/08 15:06:53;;;;;;;18.98;3.58;;;;;;;;;;6207245;23;20059;-61
2022/12/08 15:09:38;;;;;;;21.20;3.58;;;;;;;;;;6207402;23;20028;-62
2022/12/08 15:12:06;;;;;;;14.45;3.58;;;;;;;;;;6206538;23;20021;-64
2022/12/08 15:14:53;;;;;;;17.00;3.45;;;;;;;;;;6207352;23;20042;-54
2022/12/08 15:17:33;;;;;;;17.08;3.53;;;;;;;;;;6207388;23;20051;-51
2022/12/08 15:20:24;;;;;;;18.17;3.92;;;;;;;;;;6206306;23;20020;-53
2022/12/08 15:23:07;;;;;;;14.27;3.95;;;;;;;;;;6207456;23;20033;-56
2022/12/08 15:25:48;;;;;;;17.60;3.70;;;;;;;;;;6205871;23;20027;-52
2022/12/08 15:28:17;;;;;;;16.17;4.70;;;;;;;;;;6206800;23;20124;-54
2022/12/08 15:30:56;;;;;;;13.95;3.00;;;;;;;;;;6207779;23;20016;-65
2022/12/08 15:33:23;;;;;;;11.40;3.28;;;;;;;;;;6206496;23;20489;-54